METAR Data
IDs: Format: Raw Decoded Include TAF

Data at: 2000 UTC 26 Sep 2021

METAR for:KAIK (Aiken Muni, GA, US)
Text:KAIK 261955Z AUTO 25006KT 10SM CLR 28/12 A3008 RMK AO2 T02790115
Temperature: 27.9°C ( 82°F)
Dewpoint: 11.5°C ( 53°F) [RH = 36%]
Pressure (altimeter):30.08 inches Hg (1018.7 mb)
Winds:from the WSW (250 degrees) at 7 MPH (6 knots; 3.1 m/s)
Visibility:10 or more sm (16+ km)
Ceiling:at least 12,000 feet AGL
Clouds:sky clear below 12,000 feet AGL
QC Flag:automated observation with no human augmentation

TAF for:KAIK (Aiken Muni, GA, US)
Text:No data found